Airfield :
LOGIN :

Register | Disclaimer

   EN    FR    IT 

 










Legend :    VFR   Marginal VFR   IFR   Intensive IFR   Very Intensive IFR
Visi :
Ceiling :
>= 8 km
>= 3000ft
5 to 8 km
1000 to 3000 ft
1500m to 5 km
500 to 1000 ft
800 to 1500m
200 to 500 ft
< 800m
< 200 ft
Symbols :   Thunderstorms  Fog  Heavy snow  Heavy precipitations  Wind > 20 kt
SIGMETs :     Misc.  Thunderstorms  Icing  Turbulence  Mountain Waves  Volcanic Ashes







- Airport Elevation : 876 ft
- IATA code : MBX


LJMB - Maribor

CURRENT METAR :
  • 252130Z AUTO VRB03KT 9999 NCD 13/09 Q1020

EXPIRED METARs :
  • 252100Z AUTO 34003KT 9999 NCD 14/10 Q1020
  • 252030Z AUTO 32003KT 9999 NSC 15/09 Q1020
  • 252000Z 33002KT CAVOK 15/09 Q1020
  • 251930Z 01002KT CAVOK 16/09 Q1019
  • 251900Z 35003KT CAVOK 17/10 Q1019

TAF TAF LJMB
Valid from the 25 at 21:00 until the 26 at 21:00 UTC


252000Z 2521/2621 VRB02KT CAVOK
BECMG 2607/2610 03005KT
No reported NOTAMs for that airfield.



MET'MAP, your aeronautical weather chart ! - Copyright ORBIFLY December 2007 - Disclaimer

ORBIFLY MET'MAP TEAM :

Programming & Development : Alexandra Zaïnal
Concept & Development : Baudouin d'Aumeries
Co-Development & Prog : Marc-Olivier Méhu
Technical & hardware support : Manuel Goepfert

Contact : metmap@orbifly.com




SOURCES & CREDITS :

   NOAA